Time,TemperatureF,DewpointF,PressureIn,WindDirection,WindDirectionDegrees,WindSpeedMPH,WindSpeedGustMPH,Humidity,HourlyPrecipIn,Conditions,Clouds,dailyrainin,SoftwareType,DateUTC
2013-02-18 00:02:00,22.0,10.0,29.88,ESE,120,0.0,1.0,58,0.00,,,0.00,,2013-02-18 05:02:00,
2013-02-18 00:11:00,22.0,10.0,29.88,ESE,120,0.0,1.0,58,0.00,,,0.00,,2013-02-18 05:11:00,
2013-02-18 00:21:00,22.0,10.0,29.88,ESE,120,0.0,1.0,58,0.00,,,0.00,,2013-02-18 05:21:00,
2013-02-18 00:32:00,22.0,10.0,29.88,ESE,104,0.0,1.0,60,0.00,,,0.00,,2013-02-18 05:32:00,
2013-02-18 00:42:00,22.0,10.0,29.88,ESE,104,0.0,1.0,60,0.00,,,0.00,,2013-02-18 05:42:00,
2013-02-18 00:52:00,22.0,11.0,29.90,North,0,0.0,0.0,61,0.00,,,0.00,,2013-02-18 05:52:00,
2013-02-18 01:02:00,21.0,10.0,29.89,East,101,0.0,1.0,61,0.00,,,0.00,,2013-02-18 06:02:00,
2013-02-18 01:11:00,21.0,10.0,29.89,East,101,0.0,1.0,61,0.00,,,0.00,,2013-02-18 06:11:00,
2013-02-18 01:22:00,22.0,11.0,29.90,ESE,104,0.0,1.0,61,0.00,,,0.00,,2013-02-18 06:22:00,
2013-02-18 01:32:00,22.0,11.0,29.90,ESE,104,0.0,1.0,61,0.00,,,0.00,,2013-02-18 06:32:00,
2013-02-18 01:42:00,22.0,11.0,29.90,ESE,104,0.0,1.0,61,0.00,,,0.00,,2013-02-18 06:42:00,
2013-02-18 01:52:00,22.0,11.0,29.90,SSW,192,0.0,2.0,61,0.00,,,0.00,,2013-02-18 06:52:00,
2013-02-18 02:01:00,22.0,11.0,29.90,SE,127,0.0,1.0,61,0.00,,,0.00,,2013-02-18 07:01:00,
2013-02-18 02:11:00,22.0,11.0,29.90,SE,127,0.0,1.0,61,0.00,,,0.00,,2013-02-18 07:11:00,
2013-02-18 02:22:00,22.0,11.0,29.90,WNW,285,0.0,2.0,61,0.00,,,0.00,,2013-02-18 07:22:00,
2013-02-18 02:32:00,23.0,12.0,29.90,SE,129,0.0,1.0,61,0.00,,,0.00,,2013-02-18 07:32:00,
2013-02-18 02:42:00,23.0,12.0,29.90,SE,129,0.0,1.0,61,0.00,,,0.00,,2013-02-18 07:42:00,
2013-02-18 02:52:00,23.0,11.0,29.91,SSW,195,0.0,1.0,60,0.00,,,0.00,,2013-02-18 07:52:00,
2013-02-18 03:01:00,23.0,11.0,29.91,SE,136,0.0,1.0,60,0.00,,,0.00,,2013-02-18 08:01:00,
2013-02-18 03:11:00,23.0,11.0,29.91,SE,136,0.0,1.0,60,0.00,,,0.00,,2013-02-18 08:11:00,
2013-02-18 03:21:00,23.0,11.0,29.91,SE,136,0.0,1.0,60,0.00,,,0.00,,2013-02-18 08:21:00,
2013-02-18 03:32:00,23.0,11.0,29.92,SSW,193,0.0,1.0,60,0.00,,,0.00,,2013-02-18 08:32:00,
2013-02-18 03:42:00,23.0,11.0,29.92,SSW,193,0.0,1.0,60,0.00,,,0.00,,2013-02-18 08:42:00,
2013-02-18 03:52:00,23.0,11.0,29.93,SSW,196,0.0,1.0,60,0.00,,,0.00,,2013-02-18 08:52:00,
2013-02-18 04:03:00,23.0,12.0,29.93,North,0,0.0,0.0,62,0.00,,,0.00,,2013-02-18 09:03:00,
2013-02-18 04:11:00,23.0,12.0,29.93,North,0,0.0,0.0,62,0.00,,,0.00,,2013-02-18 09:11:00,
2013-02-18 04:22:00,23.0,12.0,29.93,North,0,0.0,0.0,62,0.00,,,0.00,,2013-02-18 09:22:00,
2013-02-18 04:32:00,24.0,12.0,29.93,SW,214,0.0,2.0,60,0.00,,,0.00,,2013-02-18 09:32:00,
2013-02-18 04:42:00,24.0,12.0,29.93,SW,214,0.0,2.0,60,0.00,,,0.00,,2013-02-18 09:42:00,
2013-02-18 04:52:00,24.0,12.0,29.93,SE,138,0.0,2.0,60,0.00,,,0.00,,2013-02-18 09:52:00,
2013-02-18 05:01:00,24.0,13.0,29.94,SE,138,0.0,1.0,61,0.00,,,0.00,,2013-02-18 10:01:00,
2013-02-18 05:11:00,24.0,13.0,29.94,SE,138,0.0,1.0,61,0.00,,,0.00,,2013-02-18 10:11:00,
2013-02-18 05:21:00,23.0,12.0,29.96,SE,134,0.0,1.0,61,0.00,,,0.00,,2013-02-18 10:21:00,
2013-02-18 05:22:00,24.0,13.0,29.95,SE,140,0.0,2.0,62,0.00,,,0.00,,2013-02-18 10:22:00,
2013-02-18 05:32:00,24.0,13.0,29.95,SE,140,0.0,1.0,61,0.00,,,0.00,,2013-02-18 10:32:00,
2013-02-18 05:42:00,24.0,13.0,29.95,SE,140,0.0,1.0,61,0.00,,,0.00,,2013-02-18 10:42:00,
2013-02-18 05:53:00,23.0,12.0,29.96,SE,134,0.0,1.0,61,0.00,,,0.00,,2013-02-18 10:53:00,
2013-02-18 06:02:00,23.0,12.0,29.96,SE,134,0.0,1.0,61,0.00,,,0.00,,2013-02-18 11:02:00,
2013-02-18 06:11:00,23.0,12.0,29.96,SE,134,0.0,1.0,61,0.00,,,0.00,,2013-02-18 11:11:00,
2013-02-18 06:33:00,23.0,12.0,29.98,SE,135,0.0,1.0,62,0.00,,,0.00,,2013-02-18 11:33:00,
2013-02-18 06:43:00,23.0,12.0,29.98,SE,135,0.0,1.0,62,0.00,,,0.00,,2013-02-18 11:43:00,
2013-02-18 06:53:00,23.0,12.0,29.98,SW,229,0.0,1.0,61,0.00,,,0.00,,2013-02-18 11:53:00,
2013-02-18 07:02:00,23.0,12.0,29.98,North,0,0.0,0.0,61,0.00,,,0.00,,2013-02-18 12:02:00,
2013-02-18 07:12:00,23.0,12.0,29.98,North,0,0.0,0.0,61,0.00,,,0.00,,2013-02-18 12:12:00,
2013-02-18 07:22:00,22.0,12.0,29.98,North,0,0.0,0.0,66,0.00,,,0.00,,2013-02-18 12:22:00,
2013-02-18 07:32:00,22.0,13.0,29.98,North,0,0.0,0.0,68,0.00,,,0.00,,2013-02-18 12:32:00,
2013-02-18 07:42:00,22.0,13.0,29.98,North,0,0.0,0.0,68,0.00,,,0.00,,2013-02-18 12:42:00,
2013-02-18 07:54:00,22.0,13.0,29.98,North,0,0.0,0.0,68,0.00,,,0.00,,2013-02-18 12:54:00,
2013-02-18 08:03:00,22.0,13.0,29.99,North,0,0.0,0.0,67,0.00,,,0.00,,2013-02-18 13:03:00,
2013-02-18 08:12:00,22.0,13.0,29.99,North,0,0.0,0.0,67,0.00,,,0.00,,2013-02-18 13:12:00,
2013-02-18 08:23:00,24.0,14.0,30.00,SW,229,0.0,1.0,66,0.00,,,0.00,,2013-02-18 13:23:00,
2013-02-18 08:32:00,24.0,14.0,30.00,SW,229,0.0,1.0,66,0.00,,,0.00,,2013-02-18 13:32:00,
2013-02-18 08:42:00,24.0,14.0,30.00,SW,229,0.0,1.0,66,0.00,,,0.00,,2013-02-18 13:42:00,
2013-02-18 08:53:00,25.0,15.0,30.01,SW,215,0.0,1.0,66,0.00,,,0.00,,2013-02-18 13:53:00,
2013-02-18 09:02:00,26.0,17.0,30.01,SW,217,0.0,1.0,68,0.00,,,0.00,,2013-02-18 14:02:00,
2013-02-18 09:12:00,26.0,17.0,30.01,SW,217,0.0,1.0,68,0.00,,,0.00,,2013-02-18 14:12:00,
2013-02-18 09:22:00,26.0,17.0,30.01,SW,217,0.0,1.0,68,0.00,,,0.00,,2013-02-18 14:22:00,
2013-02-18 09:33:00,28.0,18.0,30.01,SW,217,0.0,1.0,66,0.00,,,0.00,,2013-02-18 14:33:00,
2013-02-18 09:42:00,28.0,18.0,30.01,SW,217,0.0,1.0,66,0.00,,,0.00,,2013-02-18 14:42:00,
2013-02-18 09:54:00,29.0,18.0,30.02,SW,217,0.0,1.0,64,0.00,,,0.00,,2013-02-18 14:54:00,
2013-02-18 10:02:00,29.0,18.0,30.02,SW,217,0.0,1.0,64,0.00,,,0.00,,2013-02-18 15:02:00,
2013-02-18 10:12:00,29.0,18.0,30.02,SW,217,0.0,1.0,64,0.00,,,0.00,,2013-02-18 15:12:00,
2013-02-18 10:22:00,29.0,18.0,30.02,SW,217,0.0,1.0,64,0.00,,,0.00,,2013-02-18 15:22:00,
2013-02-18 10:32:00,33.0,21.0,30.03,SSE,158,0.0,1.0,62,0.00,,,0.00,,2013-02-18 15:32:00,
2013-02-18 10:42:00,33.0,21.0,30.03,SSE,158,0.0,1.0,62,0.00,,,0.00,,2013-02-18 15:42:00,
2013-02-18 10:53:00,34.0,23.0,30.03,South,184,0.0,1.0,63,0.00,,,0.00,,2013-02-18 15:53:00,
2013-02-18 11:03:00,34.0,22.0,30.03,SE,131,1.0,2.0,61,0.00,,,0.00,,2013-02-18 16:03:00,
2013-02-18 11:12:00,34.0,22.0,30.03,SE,131,1.0,2.0,61,0.00,,,0.00,,2013-02-18 16:12:00,
2013-02-18 11:22:00,36.0,23.0,30.04,SE,131,0.0,1.0,58,0.00,,,0.00,,2013-02-18 16:22:00,
2013-02-18 11:33:00,36.0,23.0,30.04,SE,140,1.0,2.0,59,0.00,,,0.00,,2013-02-18 16:33:00,
2013-02-18 11:42:00,36.0,23.0,30.04,SE,140,1.0,2.0,59,0.00,,,0.00,,2013-02-18 16:42:00,
2013-02-18 11:53:00,38.0,25.0,30.03,ESE,108,1.0,4.0,58,0.00,,,0.00,,2013-02-18 16:53:00,
2013-02-18 12:04:00,40.0,26.0,30.03,SE,141,1.0,2.0,56,0.00,,,0.00,,2013-02-18 17:04:00,
2013-02-18 12:12:00,40.0,26.0,30.03,SE,141,1.0,2.0,56,0.00,,,0.00,,2013-02-18 17:12:00,
2013-02-18 12:22:00,41.0,25.0,30.03,East,91,1.0,2.0,53,0.00,,,0.00,,2013-02-18 17:22:00,
2013-02-18 12:32:00,43.0,26.0,30.03,North,350,1.0,5.0,51,0.00,,,0.00,,2013-02-18 17:32:00,
2013-02-18 12:42:00,43.0,26.0,30.03,North,350,1.0,5.0,51,0.00,,,0.00,,2013-02-18 17:42:00,
2013-02-18 12:52:00,43.0,26.0,30.03,North,350,1.0,5.0,51,0.00,,,0.00,,2013-02-18 17:52:00,
2013-02-18 13:02:00,44.0,23.0,30.03,NW,322,2.0,6.0,43,0.00,,,0.00,,2013-02-18 18:02:00,
2013-02-18 13:12:00,44.0,23.0,30.03,NW,322,2.0,6.0,43,0.00,,,0.00,,2013-02-18 18:12:00,
2013-02-18 13:23:00,44.0,23.0,30.03,NW,322,2.0,6.0,43,0.00,,,0.00,,2013-02-18 18:23:00,
2013-02-18 13:33:00,45.0,23.0,30.01,North,352,2.0,7.0,42,0.01,,,0.01,,2013-02-18 18:33:00,
2013-02-18 13:42:00,45.0,23.0,30.01,North,352,2.0,7.0,42,0.01,,,0.01,,2013-02-18 18:42:00,
2013-02-18 14:03:00,47.0,25.0,30.00,NNE,13,1.0,6.0,41,0.01,,,0.01,,2013-02-18 19:03:00,
2013-02-18 14:12:00,47.0,25.0,30.00,NNE,13,1.0,6.0,41,0.01,,,0.01,,2013-02-18 19:12:00,
2013-02-18 14:22:00,47.0,24.0,30.01,North,354,2.0,11.0,40,0.00,,,0.01,,2013-02-18 19:22:00,
2013-02-18 14:33:00,46.0,22.0,30.01,NW,319,2.0,10.0,39,0.00,,,0.01,,2013-02-18 19:33:00,
2013-02-18 14:43:00,46.0,22.0,30.01,NW,319,2.0,10.0,39,0.00,,,0.01,,2013-02-18 19:43:00,
2013-02-18 14:53:00,47.0,23.0,30.00,NNW,330,2.0,8.0,38,0.00,,,0.01,,2013-02-18 19:53:00,
2013-02-18 15:02:00,47.0,23.0,30.00,NNW,330,2.0,8.0,38,0.00,,,0.01,,2013-02-18 20:02:00,
2013-02-18 15:12:00,47.0,23.0,30.00,NNW,330,2.0,8.0,38,0.00,,,0.01,,2013-02-18 20:12:00,
2013-02-18 15:23:00,46.0,24.0,30.00,North,1,2.0,9.0,41,0.00,,,0.01,,2013-02-18 20:23:00,
2013-02-18 15:33:00,45.0,22.0,30.01,NW,307,2.0,11.0,40,0.00,,,0.01,,2013-02-18 20:33:00,
2013-02-18 15:42:00,45.0,22.0,30.01,NW,307,2.0,11.0,40,0.00,,,0.01,,2013-02-18 20:42:00,
2013-02-18 15:52:00,44.0,23.0,30.00,WNW,283,2.0,7.0,44,0.00,,,0.01,,2013-02-18 20:52:00,
2013-02-18 16:03:00,44.0,24.0,30.00,WNW,288,2.0,7.0,45,0.00,,,0.01,,2013-02-18 21:03:00,
2013-02-18 16:12:00,44.0,24.0,30.00,WNW,288,2.0,7.0,45,0.00,,,0.01,,2013-02-18 21:12:00,
2013-02-18 16:22:00,43.0,23.0,30.01,NW,310,2.0,6.0,45,0.00,,,0.01,,2013-02-18 21:22:00,
2013-02-18 16:33:00,43.0,23.0,30.00,NNW,348,2.0,8.0,45,0.00,,,0.01,,2013-02-18 21:33:00,
2013-02-18 16:43:00,43.0,23.0,30.00,NNW,348,2.0,8.0,45,0.00,,,0.01,,2013-02-18 21:43:00,
2013-02-18 16:53:00,43.0,24.0,30.00,NNE,26,1.0,6.0,47,0.00,,,0.01,,2013-02-18 21:53:00,
2013-02-18 17:03:00,42.0,24.0,30.00,NE,47,2.0,10.0,48,0.00,,,0.01,,2013-02-18 22:03:00,
2013-02-18 17:12:00,41.0,22.0,30.00,North,11,2.0,13.0,47,0.00,,,0.01,,2013-02-18 22:12:00,
2013-02-18 17:23:00,41.0,22.0,30.00,North,11,2.0,13.0,47,0.00,,,0.01,,2013-02-18 22:23:00,
2013-02-18 17:33:00,41.0,22.0,30.00,North,11,2.0,13.0,47,0.00,,,0.01,,2013-02-18 22:33:00,
2013-02-18 17:43:00,41.0,22.0,30.00,North,11,2.0,13.0,47,0.00,,,0.01,,2013-02-18 22:43:00,
2013-02-18 17:54:00,40.0,22.0,29.99,NE,42,1.0,6.0,49,0.00,,,0.01,,2013-02-18 22:54:00,
2013-02-18 18:02:00,39.0,23.0,29.99,NE,42,1.0,6.0,52,0.00,,,0.01,,2013-02-18 23:02:00,
2013-02-18 18:12:00,39.0,23.0,29.99,NE,42,1.0,6.0,52,0.00,,,0.01,,2013-02-18 23:12:00,
2013-02-18 18:23:00,38.0,22.0,29.99,ENE,75,1.0,10.0,53,0.00,,,0.01,,2013-02-18 23:23:00,
2013-02-18 18:33:00,38.0,22.0,29.99,ENE,75,1.0,10.0,53,0.00,,,0.01,,2013-02-18 23:33:00,
2013-02-18 18:43:00,38.0,22.0,29.99,ENE,75,1.0,10.0,53,0.00,,,0.01,,2013-02-18 23:43:00,
2013-02-18 18:52:00,35.0,22.0,30.00,East,96,1.0,5.0,59,0.00,,,0.01,,2013-02-18 23:52:00,
2013-02-18 19:03:00,35.0,22.0,30.00,East,96,1.0,5.0,59,0.00,,,0.01,,2013-02-19 00:03:00,
2013-02-18 19:13:00,35.0,22.0,30.00,East,96,1.0,5.0,59,0.00,,,0.01,,2013-02-19 00:13:00,
2013-02-18 19:23:00,34.0,22.0,30.00,SE,125,0.0,3.0,61,0.00,,,0.01,,2013-02-19 00:23:00,
2013-02-18 19:34:00,33.0,21.0,30.00,East,91,1.0,6.0,62,0.00,,,0.01,,2013-02-19 00:34:00,
2013-02-18 19:44:00,33.0,21.0,30.00,East,91,1.0,6.0,62,0.00,,,0.01,,2013-02-19 00:44:00,
2013-02-18 19:55:00,33.0,21.0,29.99,SE,128,0.0,2.0,62,0.00,,,0.01,,2013-02-19 00:55:00,
2013-02-18 20:03:00,33.0,21.0,29.99,ENE,71,1.0,3.0,62,0.00,,,0.01,,2013-02-19 01:03:00,
2013-02-18 20:14:00,33.0,21.0,29.99,ENE,71,1.0,3.0,62,0.00,,,0.01,,2013-02-19 01:14:00,
2013-02-18 20:24:00,33.0,22.0,29.99,East,98,1.0,2.0,63,0.00,,,0.01,,2013-02-19 01:24:00,
2013-02-18 20:35:00,32.0,21.0,29.98,SE,132,0.0,2.0,64,0.00,,,0.01,,2013-02-19 01:35:00,
2013-02-18 20:44:00,32.0,21.0,29.98,SE,132,0.0,2.0,64,0.00,,,0.01,,2013-02-19 01:44:00,
2013-02-18 20:56:00,32.0,21.0,29.99,ENE,72,0.0,4.0,64,0.00,,,0.01,,2013-02-19 01:56:00,
2013-02-18 21:03:00,33.0,22.0,29.99,NE,43,1.0,11.0,63,0.00,,,0.01,,2013-02-19 02:03:00,
2013-02-18 21:14:00,33.0,22.0,29.99,NE,43,1.0,11.0,63,0.00,,,0.01,,2013-02-19 02:14:00,
2013-02-18 21:23:00,33.0,22.0,29.99,NE,43,1.0,11.0,63,0.00,,,0.01,,2013-02-19 02:23:00,
2013-02-18 21:34:00,33.0,22.0,30.00,ESE,112,1.0,5.0,64,0.00,,,0.01,,2013-02-19 02:34:00,
2013-02-18 21:43:00,33.0,22.0,30.00,ESE,112,1.0,5.0,64,0.00,,,0.01,,2013-02-19 02:43:00,
2013-02-18 21:55:00,33.0,23.0,29.99,ESE,109,1.0,3.0,65,0.00,,,0.01,,2013-02-19 02:55:00,
2013-02-18 22:07:00,32.0,22.0,29.98,East,85,1.0,6.0,67,0.00,,,0.01,,2013-02-19 03:07:00,
2013-02-18 22:15:00,32.0,22.0,29.98,East,85,1.0,6.0,67,0.00,,,0.01,,2013-02-19 03:15:00,
2013-02-18 22:24:00,32.0,22.0,29.98,ESE,110,1.0,4.0,67,0.00,,,0.01,,2013-02-19 03:24:00,
2013-02-18 22:34:00,32.0,22.0,29.98,East,87,1.0,5.0,67,0.00,,,0.01,,2013-02-19 03:34:00,
2013-02-18 22:44:00,32.0,22.0,29.98,East,87,1.0,5.0,67,0.00,,,0.01,,2013-02-19 03:44:00,
2013-02-18 22:55:00,32.0,22.0,29.98,East,87,1.0,5.0,67,0.00,,,0.01,,2013-02-19 03:55:00,
2013-02-18 23:03:00,32.0,23.0,29.98,ESE,105,1.0,4.0,68,0.00,,,0.01,,2013-02-19 04:03:00,
2013-02-18 23:14:00,32.0,23.0,29.98,ESE,105,1.0,4.0,68,0.00,,,0.01,,2013-02-19 04:14:00,
2013-02-18 23:24:00,32.0,23.0,29.96,ENE,60,2.0,10.0,68,0.00,,,0.01,,2013-02-19 04:24:00,
2013-02-18 23:34:00,32.0,23.0,29.96,East,88,1.0,3.0,68,0.00,,,0.01,,2013-02-19 04:34:00,
2013-02-18 23:44:00,32.0,23.0,29.96,East,88,1.0,3.0,68,0.00,,,0.01,,2013-02-19 04:44:00,
2013-02-18 23:55:00,32.0,23.0,29.95,ENE,74,2.0,5.0,70,0.00,,,0.01,,2013-02-19 04:55:00,